Weather at Winnipeg / St. Andrews Airport

Public forecast

Using degrees Celsius for public forecast. Weather courtesy of forecast.io.

Closest aviation weather report (METAR) to Winnipeg / St. Andrews Airport

Closest report is Winnipeg / James Armstrong Richardson International Airport, 11.9 nm (22.0 km) SW. Retrieved 2021/04/20 19:00 UTC (36 minutes ago):

CYWG 201900Z 36009G17KT 350V050 10SM -SHSN BKN038 OVC063 M00/M09 A3021 RMK SC6SC2 CVCTV CLD EMBD SLP247

Closest aviation forecast (TAF) to Winnipeg / St. Andrews Airport

Closest forecast is Winnipeg / James Armstrong Richardson International Airport, 11.9 nm (22.0 km) SW. Retrieved 2021/04/20 18:42 UTC (54 minutes ago):

TAF CYWG 201738Z 2018/2118 34012G22KT P6SM SCT030 BKN060 TEMPO 2018/2102 5SM -SHSN BKN030 FM210200 30008KT P6SM BKN040 FM210900 26006KT P6SM FEW020 BKN040 TEMPO 2109/2112 5SM -SN BKN020 OVC040 FM211200 21010KT P6SM FEW040 RMK NXT FCST BY 210000Z